createdAt,value
2023-05-21T00:00:51.775Z,77.71
2023-05-21T00:03:42.305Z,77.79
2023-05-21T00:06:10.233Z,77.97
2023-05-21T00:08:37.928Z,78.09
2023-05-21T00:11:06.741Z,78.17
2023-05-21T00:13:35.091Z,78.32
2023-05-21T00:16:04.106Z,78.46
2023-05-21T00:18:32.580Z,78.51
2023-05-21T00:21:01.737Z,78.24
2023-05-21T00:23:32.758Z,78.69
2023-05-21T00:26:00.932Z,78.48
2023-05-21T00:28:28.915Z,79.00
2023-05-21T00:30:56.723Z,79.22
2023-05-21T00:33:26.844Z,79.45
2023-05-21T00:35:55.412Z,79.67
2023-05-21T00:38:23.692Z,79.99
2023-05-21T00:40:51.494Z,80.31
2023-05-21T00:43:19.458Z,80.53
2023-05-21T00:45:48.786Z,80.74
2023-05-21T00:48:16.482Z,80.97
2023-05-21T00:50:45.006Z,80.56
2023-05-21T00:53:15.391Z,81.05
2023-05-21T00:55:43.103Z,81.31
2023-05-21T00:58:11.098Z,81.48
2023-05-21T01:00:40.814Z,81.62
2023-05-21T01:03:09.610Z,81.79
2023-05-21T01:05:37.970Z,81.92
2023-05-21T01:08:07.680Z,82.04
2023-05-21T01:10:35.555Z,82.12
2023-05-21T01:13:03.479Z,82.31
2023-05-21T01:15:31.338Z,82.45
2023-05-21T01:17:59.854Z,82.74
2023-05-21T01:20:28.667Z,82.82
2023-05-21T01:22:57.316Z,82.75
2023-05-21T01:25:25.465Z,82.76
2023-05-21T01:27:53.157Z,82.91
2023-05-21T01:30:23.373Z,83.01
2023-05-21T01:33:03.059Z,83.11
2023-05-21T01:35:39.070Z,83.16
2023-05-21T01:38:19.292Z,83.28
2023-05-21T01:41:06.959Z,83.43
2023-05-21T01:43:40.412Z,83.51
2023-05-21T01:46:12.545Z,83.63
2023-05-21T01:48:42.533Z,83.71
2023-05-21T01:51:11.464Z,83.71
2023-05-21T01:53:40.822Z,83.76
2023-05-21T01:56:08.663Z,83.85
2023-05-21T01:58:36.411Z,83.92
2023-05-21T02:01:05.656Z,84.02
2023-05-21T02:03:33.972Z,84.12
2023-05-21T02:06:02.169Z,84.21
2023-05-21T02:08:31.355Z,84.33
2023-05-21T02:10:59.762Z,84.44
2023-05-21T02:13:29.122Z,84.53
2023-05-21T02:15:56.902Z,84.64
2023-05-21T02:18:26.630Z,84.75
2023-05-21T02:20:54.801Z,84.78
2023-05-21T02:23:22.582Z,84.86
2023-05-21T02:25:51.686Z,84.98
2023-05-21T02:28:19.565Z,85.11
2023-05-21T02:30:47.307Z,85.24
2023-05-21T02:33:16.304Z,85.31
2023-05-21T02:35:44.632Z,85.42
2023-05-21T02:38:13.643Z,85.50
2023-05-21T02:40:41.622Z,85.57
2023-05-21T02:43:09.600Z,85.66
2023-05-21T02:45:37.529Z,85.77
2023-05-21T02:48:06.501Z,85.85
2023-05-21T02:50:36.843Z,85.92
2023-05-21T02:53:04.689Z,86.01
2023-05-21T02:55:32.913Z,86.09
2023-05-21T02:58:01.242Z,86.19
2023-05-21T03:00:28.990Z,86.33
2023-05-21T03:02:57.162Z,86.50
2023-05-21T03:05:25.817Z,86.65
2023-05-21T03:07:53.521Z,86.79
2023-05-21T03:10:21.970Z,86.91
2023-05-21T03:12:49.769Z,87.00
2023-05-21T03:15:18.168Z,87.10
2023-05-21T03:17:46.084Z,87.22
2023-05-21T03:20:16.399Z,87.38
2023-05-21T03:22:45.143Z,87.52
2023-05-21T03:25:13.356Z,87.68
2023-05-21T03:27:41.226Z,87.91
2023-05-21T03:30:19.072Z,88.11
2023-05-21T03:33:00.937Z,88.22
2023-05-21T03:35:28.904Z,88.40
2023-05-21T03:37:56.742Z,88.59
2023-05-21T03:40:25.223Z,88.76
2023-05-21T03:42:53.263Z,88.94
2023-05-21T03:45:21.891Z,89.09
2023-05-21T03:48:09.819Z,89.21
2023-05-21T03:50:37.654Z,89.26
2023-05-21T03:53:05.462Z,89.34
2023-05-21T03:55:33.388Z,89.70
2023-05-21T03:58:02.575Z,89.93
2023-05-21T04:00:34.643Z,89.91
2023-05-21T04:03:02.477Z,89.88
2023-05-21T04:05:30.423Z,89.37
2023-05-21T04:07:58.831Z,88.15
2023-05-21T04:10:27.130Z,87.37
2023-05-21T04:12:55.169Z,87.48
2023-05-21T04:15:24.401Z,87.33
2023-05-21T04:17:52.523Z,86.95
2023-05-21T04:20:21.018Z,86.77
2023-05-21T04:22:49.209Z,86.47
2023-05-21T04:25:17.469Z,86.08
2023-05-21T04:27:47.830Z,85.57
2023-05-21T04:30:16.052Z,85.07
2023-05-21T04:32:46.216Z,84.94
2023-05-21T04:35:15.327Z,84.54
2023-05-21T04:37:45.968Z,83.58
2023-05-21T04:40:24.393Z,82.61
2023-05-21T04:42:52.113Z,81.67
2023-05-21T04:45:21.303Z,81.16
2023-05-21T04:47:49.720Z,80.80
2023-05-21T04:50:17.589Z,80.29
2023-05-21T04:52:45.632Z,79.30
2023-05-21T04:55:13.637Z,79.40
2023-05-21T04:57:41.293Z,78.71
2023-05-21T05:00:10.407Z,78.36
2023-05-21T05:02:42.736Z,78.24
2023-05-21T05:05:11.162Z,77.64
2023-05-21T05:07:38.950Z,76.66
2023-05-21T05:10:08.787Z,75.73
2023-05-21T05:12:36.996Z,75.96
2023-05-21T05:15:06.215Z,75.09
2023-05-21T05:17:35.435Z,75.07
2023-05-21T05:20:05.125Z,73.33
2023-05-21T05:22:33.211Z,72.79
2023-05-21T05:25:00.967Z,72.80
2023-05-21T05:27:28.762Z,72.55
2023-05-21T05:29:56.524Z,72.06
2023-05-21T05:32:24.699Z,71.43
2023-05-21T05:34:52.630Z,71.56
2023-05-21T05:37:20.487Z,70.69
2023-05-21T05:39:48.262Z,70.29
2023-05-21T05:42:16.020Z,69.80
2023-05-21T05:44:44.169Z,68.68
2023-05-21T05:47:11.901Z,68.23
2023-05-21T05:49:40.766Z,67.95
2023-05-21T05:52:08.560Z,66.96
2023-05-21T05:54:36.257Z,66.84
2023-05-21T05:57:04.446Z,66.44
2023-05-21T05:59:33.830Z,66.39
2023-05-21T06:02:02.984Z,66.16
2023-05-21T06:04:31.153Z,65.82
2023-05-21T06:06:59.907Z,65.79
2023-05-21T06:09:27.586Z,65.02
2023-05-21T06:11:56.381Z,64.18
2023-05-21T06:14:24.283Z,64.34
2023-05-21T06:16:52.326Z,63.91
2023-05-21T06:19:20.195Z,64.00
2023-05-21T06:21:48.518Z,63.95
2023-05-21T06:24:16.339Z,63.80
2023-05-21T06:26:44.638Z,63.25
2023-05-21T06:29:14.270Z,62.48
2023-05-21T06:31:44.099Z,62.67
2023-05-21T06:34:12.178Z,62.44
2023-05-21T06:36:40.006Z,62.12
2023-05-21T06:39:08.100Z,61.82
2023-05-21T06:41:37.454Z,61.47
2023-05-21T06:44:23.305Z,60.68
2023-05-21T06:47:14.181Z,60.58
2023-05-21T06:49:41.903Z,60.44
2023-05-21T06:52:09.660Z,59.18
2023-05-21T06:54:37.884Z,58.60
2023-05-21T06:57:06.094Z,58.86
2023-05-21T06:59:34.214Z,58.71
2023-05-21T07:02:04.354Z,59.11
2023-05-21T07:04:32.478Z,58.43
2023-05-21T07:07:01.060Z,58.23
2023-05-21T07:09:28.770Z,58.44
2023-05-21T07:11:57.899Z,57.46
2023-05-21T07:14:26.880Z,56.47
2023-05-21T07:16:54.670Z,55.81
2023-05-21T07:19:22.550Z,55.18
2023-05-21T07:21:50.798Z,55.07
2023-05-21T07:24:18.465Z,54.28
2023-05-21T07:26:46.251Z,53.31
2023-05-21T07:29:14.257Z,53.21
2023-05-21T07:31:42.251Z,52.96
2023-05-21T07:34:11.559Z,53.09
2023-05-21T07:36:40.509Z,53.13
2023-05-21T07:39:11.290Z,52.85
2023-05-21T07:41:39.256Z,53.46
2023-05-21T07:44:08.452Z,53.41
2023-05-21T07:46:39.145Z,52.64
2023-05-21T07:49:07.202Z,52.50
2023-05-21T07:51:34.961Z,50.92
2023-05-21T07:54:04.077Z,49.65
2023-05-21T07:56:36.731Z,49.72
2023-05-21T07:59:05.902Z,50.47
2023-05-21T08:01:33.755Z,50.33
2023-05-21T08:04:05.797Z,49.64
2023-05-21T08:06:37.551Z,50.26
2023-05-21T08:09:06.811Z,48.76
2023-05-21T08:11:34.547Z,48.74
2023-05-21T08:14:02.723Z,48.84
2023-05-21T08:16:31.077Z,48.78
2023-05-21T08:18:58.930Z,48.18
2023-05-21T08:21:26.645Z,46.29
2023-05-21T08:23:54.360Z,46.22
2023-05-21T08:26:22.166Z,46.04
2023-05-21T08:28:49.861Z,47.06
2023-05-21T08:31:18.820Z,44.80
2023-05-21T08:33:54.642Z,44.34
2023-05-21T08:36:27.304Z,43.50
2023-05-21T08:39:00.097Z,43.59
2023-05-21T08:41:38.907Z,43.19
2023-05-21T08:44:12.283Z,42.10
2023-05-21T08:46:42.771Z,41.32
2023-05-21T08:49:13.061Z,41.45
2023-05-21T08:51:43.916Z,41.78
2023-05-21T08:54:13.960Z,40.58
2023-05-21T08:56:47.043Z,39.73
2023-05-21T08:59:18.276Z,39.86
2023-05-21T09:01:47.130Z,40.25
2023-05-21T09:04:27.647Z,40.42
2023-05-21T09:06:58.123Z,40.17
2023-05-21T09:10:09.915Z,40.32
2023-05-21T09:12:38.072Z,40.44
2023-05-21T09:15:07.842Z,40.27
2023-05-21T09:17:38.168Z,39.96
2023-05-21T09:20:27.636Z,38.87
2023-05-21T09:23:03.550Z,39.16
2023-05-21T09:25:39.140Z,39.69
2023-05-21T09:28:15.878Z,37.43
2023-05-21T09:30:48.051Z,35.88
2023-05-21T09:33:26.994Z,34.79
2023-05-21T09:35:54.838Z,34.02
2023-05-21T09:38:23.929Z,33.62
2023-05-21T09:40:55.182Z,35.11
2023-05-21T09:43:23.656Z,35.30
2023-05-21T09:45:57.327Z,33.26
2023-05-21T09:48:36.459Z,32.66
2023-05-21T09:51:14.958Z,32.97
2023-05-21T09:53:54.363Z,33.54
2023-05-21T09:56:24.529Z,33.71
2023-05-21T09:58:54.958Z,33.06
2023-05-21T10:01:24.276Z,33.48
2023-05-21T10:04:00.193Z,33.18
2023-05-21T10:06:29.652Z,32.46
2023-05-21T10:09:01.108Z,32.20
2023-05-21T10:11:35.139Z,32.59
2023-05-21T10:14:19.779Z,31.91
2023-05-21T10:16:48.276Z,30.87
2023-05-21T10:19:16.435Z,30.24
2023-05-21T10:21:45.726Z,30.88
2023-05-21T10:24:13.758Z,31.42
2023-05-21T10:26:42.481Z,31.30
2023-05-21T10:29:11.056Z,30.78
2023-05-21T10:31:39.902Z,31.44
2023-05-21T10:34:08.294Z,31.99
2023-05-21T10:36:37.132Z,31.19
2023-05-21T10:39:07.489Z,29.83
2023-05-21T10:41:46.348Z,30.20
2023-05-21T10:44:55.510Z,30.88
2023-05-21T10:47:29.191Z,31.65
2023-05-21T10:50:12.280Z,31.46
2023-05-21T10:53:16.926Z,30.86
2023-05-21T10:56:25.364Z,30.28
2023-05-21T10:59:11.884Z,30.02
2023-05-21T11:01:41.785Z,29.73
2023-05-21T11:04:10.978Z,28.81
2023-05-21T11:06:38.750Z,28.69
2023-05-21T11:09:13.955Z,27.92
2023-05-21T11:11:42.902Z,27.08
2023-05-21T11:14:36.470Z,27.49
2023-05-21T11:17:12.143Z,28.43
2023-05-21T11:19:51.014Z,28.87
2023-05-21T11:22:26.849Z,29.23
2023-05-21T11:24:57.550Z,29.34
2023-05-21T11:27:34.290Z,29.41
2023-05-21T11:30:20.622Z,29.18
2023-05-21T11:33:17.701Z,28.48
2023-05-21T11:35:47.687Z,28.21
2023-05-21T11:38:15.759Z,28.58
2023-05-21T11:40:56.483Z,28.43
2023-05-21T11:43:24.208Z,28.29
2023-05-21T11:45:52.969Z,28.50
2023-05-21T11:48:26.898Z,28.86
2023-05-21T11:50:55.998Z,29.16
2023-05-21T11:53:24.884Z,29.38
2023-05-21T11:55:57.550Z,28.86
2023-05-21T11:58:25.806Z,29.41
2023-05-21T12:00:53.731Z,28.93
2023-05-21T12:03:26.685Z,29.47
2023-05-21T12:05:55.645Z,29.80
2023-05-21T12:08:25.711Z,29.67
2023-05-21T12:10:58.863Z,30.01
2023-05-21T12:13:26.942Z,29.86
2023-05-21T12:15:54.739Z,29.72
2023-05-21T12:18:22.748Z,29.21
2023-05-21T12:20:52.175Z,28.61
2023-05-21T12:23:23.405Z,29.32
2023-05-21T12:25:53.619Z,29.83
2023-05-21T12:28:23.063Z,30.00
2023-05-21T12:30:51.483Z,30.76
2023-05-21T12:33:25.048Z,30.36
2023-05-21T12:35:53.796Z,30.00
2023-05-21T12:38:21.616Z,30.39
2023-05-21T12:40:49.554Z,30.59
2023-05-21T12:43:19.063Z,30.70
2023-05-21T12:45:47.546Z,30.69
2023-05-21T12:48:16.638Z,30.23
2023-05-21T12:50:44.376Z,29.78
2023-05-21T12:53:12.253Z,29.38
2023-05-21T12:55:40.785Z,29.43
2023-05-21T12:58:13.754Z,29.69
2023-05-21T13:00:43.421Z,30.08
2023-05-21T13:03:11.356Z,30.19
2023-05-21T13:05:41.651Z,30.31
2023-05-21T13:08:10.603Z,30.43
2023-05-21T13:10:38.549Z,30.62
2023-05-21T13:13:06.511Z,30.87
2023-05-21T13:15:34.238Z,30.71
2023-05-21T13:18:04.625Z,30.92
2023-05-21T13:20:32.593Z,31.77
2023-05-21T13:23:01.769Z,32.24
2023-05-21T13:25:32.783Z,31.87
2023-05-21T13:28:05.960Z,31.96
2023-05-21T13:30:33.909Z,32.27
2023-05-21T13:33:04.427Z,32.90
2023-05-21T13:35:32.448Z,32.58
2023-05-21T13:38:00.217Z,32.80
2023-05-21T13:40:30.209Z,32.86
2023-05-21T13:42:58.068Z,32.86
2023-05-21T13:45:29.273Z,33.42
2023-05-21T13:47:57.349Z,33.10
2023-05-21T13:50:25.397Z,33.50
2023-05-21T13:52:53.146Z,33.66
2023-05-21T13:55:21.216Z,34.15
2023-05-21T13:57:49.256Z,34.50
2023-05-21T14:00:17.077Z,34.13
2023-05-21T14:02:45.212Z,34.08
2023-05-21T14:05:14.158Z,34.34
2023-05-21T14:07:42.225Z,33.61
2023-05-21T14:10:10.463Z,34.48
2023-05-21T14:12:38.977Z,34.68
2023-05-21T14:15:07.728Z,34.70
2023-05-21T14:17:35.594Z,34.64
2023-05-21T14:20:03.723Z,34.31
2023-05-21T14:22:33.762Z,33.77
2023-05-21T14:25:03.189Z,33.84
2023-05-21T14:27:31.017Z,33.85
2023-05-21T14:29:59.901Z,33.22
2023-05-21T14:32:27.707Z,33.27
2023-05-21T14:34:56.729Z,33.57
2023-05-21T14:37:25.814Z,33.82
2023-05-21T14:39:53.555Z,33.64
2023-05-21T14:42:23.382Z,33.61
2023-05-21T14:44:52.362Z,33.95
2023-05-21T14:47:20.529Z,34.29
2023-05-21T14:49:50.874Z,34.40
2023-05-21T14:52:20.050Z,34.30
2023-05-21T14:54:48.589Z,33.71
2023-05-21T14:57:16.293Z,33.43
2023-05-21T14:59:44.268Z,33.96
2023-05-21T15:02:11.964Z,33.41
2023-05-21T15:04:39.851Z,33.42
2023-05-21T15:07:07.939Z,32.82
2023-05-21T15:09:35.774Z,33.52
2023-05-21T15:12:03.683Z,32.95
2023-05-21T15:14:31.408Z,32.72
2023-05-21T15:16:59.123Z,32.90
2023-05-21T15:19:29.100Z,33.28
2023-05-21T15:21:57.156Z,33.28
2023-05-21T15:24:27.565Z,33.10
2023-05-21T15:26:55.610Z,33.39
2023-05-21T15:29:23.833Z,33.37
2023-05-21T15:31:51.704Z,33.74
2023-05-21T15:34:21.856Z,33.86
2023-05-21T15:36:56.181Z,33.82
2023-05-21T15:39:24.414Z,34.16
2023-05-21T15:41:54.844Z,33.70
2023-05-21T15:44:25.462Z,33.93
2023-05-21T15:46:54.818Z,33.93
2023-05-21T15:49:22.785Z,33.98
2023-05-21T15:51:51.889Z,33.85
2023-05-21T15:54:22.774Z,33.80
2023-05-21T15:56:52.961Z,33.82
2023-05-21T15:59:22.246Z,33.43
2023-05-21T16:01:52.615Z,33.00
2023-05-21T16:04:23.819Z,33.11
2023-05-21T16:06:51.673Z,33.01
2023-05-21T16:09:19.404Z,32.69
2023-05-21T16:11:49.087Z,32.76
2023-05-21T16:14:16.777Z,32.51
2023-05-21T16:16:44.816Z,32.77
2023-05-21T16:19:16.664Z,32.63
2023-05-21T16:21:44.538Z,32.66
2023-05-21T16:24:12.275Z,32.81
2023-05-21T16:26:40.311Z,32.84
2023-05-21T16:29:08.231Z,33.12
2023-05-21T16:31:37.828Z,33.46
2023-05-21T16:34:06.388Z,32.95
2023-05-21T16:36:37.418Z,33.58
2023-05-21T16:39:05.421Z,33.79
2023-05-21T16:41:33.862Z,33.94
2023-05-21T16:44:04.058Z,33.77
2023-05-21T16:46:31.814Z,33.79
2023-05-21T16:48:59.879Z,34.00
2023-05-21T16:51:27.594Z,34.06
2023-05-21T16:53:55.327Z,34.11
2023-05-21T16:56:23.214Z,34.47
2023-05-21T16:58:50.993Z,34.68
2023-05-21T17:01:18.762Z,34.63
2023-05-21T17:03:46.575Z,34.44
2023-05-21T17:06:15.047Z,34.95
2023-05-21T17:08:42.772Z,34.80
2023-05-21T17:11:10.831Z,34.95
2023-05-21T17:13:38.563Z,35.41
2023-05-21T17:16:06.503Z,35.75
2023-05-21T17:18:35.538Z,36.07
2023-05-21T17:21:03.462Z,36.27
2023-05-21T17:23:31.291Z,36.23
2023-05-21T17:25:58.992Z,36.62
2023-05-21T17:28:26.718Z,36.75
2023-05-21T17:30:54.456Z,37.18
2023-05-21T17:33:22.644Z,37.54
2023-05-21T17:35:50.371Z,37.45
2023-05-21T17:38:18.037Z,37.72
2023-05-21T17:40:46.222Z,37.99
2023-05-21T17:43:13.938Z,38.06
2023-05-21T17:45:41.715Z,38.10
2023-05-21T17:48:09.462Z,38.29
2023-05-21T17:50:37.214Z,38.58
2023-05-21T17:53:04.957Z,38.75
2023-05-21T17:55:32.799Z,38.91
2023-05-21T17:58:01.013Z,39.12
2023-05-21T18:00:28.780Z,39.26
2023-05-21T18:02:58.800Z,39.39
2023-05-21T18:05:26.604Z,39.45
2023-05-21T18:07:55.740Z,39.35
2023-05-21T18:10:23.612Z,39.31
2023-05-21T18:12:51.537Z,39.42
2023-05-21T18:15:19.295Z,39.49
2023-05-21T18:17:47.632Z,39.63
2023-05-21T18:20:15.512Z,39.89
2023-05-21T18:22:44.353Z,39.92
2023-05-21T18:25:12.090Z,40.19
2023-05-21T18:27:39.915Z,40.58
2023-05-21T18:30:08.487Z,40.61
2023-05-21T18:32:38.888Z,40.89
2023-05-21T18:35:10.917Z,41.96
2023-05-21T18:37:42.156Z,41.70
2023-05-21T18:40:11.543Z,41.87
2023-05-21T18:42:40.199Z,42.31
2023-05-21T18:45:09.187Z,42.78
2023-05-21T18:47:39.151Z,43.32
2023-05-21T18:50:15.517Z,44.09
2023-05-21T18:52:43.225Z,44.68
2023-05-21T18:55:10.992Z,45.80
2023-05-21T18:57:39.471Z,46.67
2023-05-21T19:00:09.661Z,47.43
2023-05-21T19:02:37.810Z,48.07
2023-05-21T19:05:07.216Z,48.32
2023-05-21T19:07:36.175Z,48.49
2023-05-21T19:10:05.035Z,49.14
2023-05-21T19:12:36.073Z,49.54
2023-05-21T19:15:04.165Z,50.07
2023-05-21T19:17:33.444Z,50.79
2023-05-21T19:20:01.523Z,51.31
2023-05-21T19:22:29.424Z,51.61
2023-05-21T19:24:57.191Z,52.04
2023-05-21T19:27:26.256Z,52.42
2023-05-21T19:29:54.010Z,52.93
2023-05-21T19:32:23.653Z,53.49
2023-05-21T19:34:52.220Z,54.08
2023-05-21T19:37:20.573Z,54.69
2023-05-21T19:39:50.411Z,55.17
2023-05-21T19:42:21.287Z,56.18
2023-05-21T19:44:49.521Z,56.98
2023-05-21T19:47:18.535Z,57.43
2023-05-21T19:49:46.267Z,58.04
2023-05-21T19:52:14.032Z,58.70
2023-05-21T19:54:41.793Z,58.58
2023-05-21T19:57:12.313Z,58.77
2023-05-21T19:59:40.914Z,59.18
2023-05-21T20:02:12.428Z,59.79
2023-05-21T20:04:40.324Z,60.24
2023-05-21T20:07:09.010Z,60.25
2023-05-21T20:09:37.152Z,60.28
2023-05-21T20:12:06.178Z,60.52
2023-05-21T20:14:34.435Z,60.82
2023-05-21T20:17:03.396Z,60.96
2023-05-21T20:19:32.570Z,61.42
2023-05-21T20:22:00.649Z,61.75
2023-05-21T20:24:28.449Z,62.32
2023-05-21T20:26:56.136Z,62.87
2023-05-21T20:29:24.001Z,63.14
2023-05-21T20:31:52.251Z,63.54
2023-05-21T20:34:20.695Z,64.19
2023-05-21T20:36:49.280Z,64.98
2023-05-21T20:39:16.922Z,65.42
2023-05-21T20:41:46.868Z,65.91
2023-05-21T20:44:14.617Z,65.93
2023-05-21T20:46:42.441Z,66.32
2023-05-21T20:49:10.277Z,66.47
2023-05-21T20:51:38.098Z,66.42
2023-05-21T20:54:06.141Z,66.62
2023-05-21T20:56:42.017Z,66.55
2023-05-21T20:59:11.952Z,66.80
2023-05-21T21:01:40.932Z,67.00
2023-05-21T21:04:09.546Z,67.19
2023-05-21T21:06:38.617Z,67.56
2023-05-21T21:09:06.475Z,67.93
2023-05-21T21:11:34.325Z,68.31
2023-05-21T21:14:02.728Z,68.52
2023-05-21T21:16:30.888Z,68.74
2023-05-21T21:18:58.577Z,68.95
2023-05-21T21:21:27.153Z,69.19
2023-05-21T21:23:54.819Z,69.33
2023-05-21T21:26:23.260Z,69.61
2023-05-21T21:28:50.997Z,69.87
2023-05-21T21:31:18.787Z,70.29
2023-05-21T21:33:46.469Z,70.48
2023-05-21T21:36:14.611Z,70.70
2023-05-21T21:38:42.459Z,70.92
2023-05-21T21:41:10.483Z,71.17
2023-05-21T21:43:38.356Z,71.41
2023-05-21T21:46:06.062Z,71.74
2023-05-21T21:48:34.786Z,71.94
2023-05-21T21:51:02.548Z,72.12
2023-05-21T21:53:30.784Z,72.43
2023-05-21T21:56:01.008Z,72.62
2023-05-21T21:58:28.745Z,72.94
2023-05-21T22:00:57.273Z,73.16
2023-05-21T22:03:25.029Z,73.55
2023-05-21T22:05:55.131Z,73.79
2023-05-21T22:08:22.858Z,73.96
2023-05-21T22:10:50.952Z,74.17
2023-05-21T22:13:18.957Z,74.45
2023-05-21T22:15:47.353Z,74.71
2023-05-21T22:18:22.455Z,74.96
2023-05-21T22:20:56.062Z,75.08
2023-05-21T22:23:23.715Z,75.40
2023-05-21T22:25:52.316Z,75.57
2023-05-21T22:28:22.358Z,75.73
2023-05-21T22:30:50.123Z,75.90
2023-05-21T22:33:18.003Z,76.02
2023-05-21T22:35:46.253Z,76.20
2023-05-21T22:38:14.167Z,76.36
2023-05-21T22:40:41.815Z,76.50
2023-05-21T22:43:09.686Z,76.60
2023-05-21T22:45:38.479Z,76.62
2023-05-21T22:48:07.331Z,76.78
2023-05-21T22:50:36.271Z,76.90
2023-05-21T22:53:04.290Z,76.97
2023-05-21T22:55:32.054Z,77.02
2023-05-21T22:57:59.733Z,77.11
2023-05-21T23:00:27.510Z,77.17
2023-05-21T23:02:55.705Z,77.36
2023-05-21T23:05:23.492Z,77.54
2023-05-21T23:07:51.456Z,77.66
2023-05-21T23:10:19.225Z,77.80
2023-05-21T23:12:46.983Z,77.93
2023-05-21T23:15:14.709Z,78.00
2023-05-21T23:17:42.490Z,78.21
2023-05-21T23:20:10.593Z,78.37
2023-05-21T23:22:39.870Z,78.56
2023-05-21T23:25:08.379Z,78.76
2023-05-21T23:27:36.060Z,78.91
2023-05-21T23:30:03.843Z,79.06
2023-05-21T23:32:31.626Z,79.12
2023-05-21T23:34:59.300Z,79.23
2023-05-21T23:37:27.034Z,79.30
2023-05-21T23:39:54.711Z,79.36
2023-05-21T23:42:22.535Z,79.49
2023-05-21T23:44:50.261Z,79.70
2023-05-21T23:47:18.121Z,79.86
2023-05-21T23:49:45.962Z,80.06
2023-05-21T23:52:17.265Z,80.16
2023-05-21T23:54:45.047Z,80.22
2023-05-21T23:57:13.343Z,80.39
2023-05-21T23:59:41.146Z,80.52
